Snow/Ice From: 16-12-2017 16:00 Until: 17-12-2017 16:00 warning for: Snow/Ice Level: Yellow info button

Although rather usual in this region, locally or potentially dangerous phenomena are expected. (such as local winds, summer thunderstorms, rising streams or high waves) Be aware and pay attention to the latest weather updates, especially if you carry out activities exposed to weather or close to a stream or shoreline. 


Meteo18 Weather Cam more information Meteo18 Weather Cam


Thunder radar more information blitzortung!


warning for Snow/Ice more information rain snow radar


Visit our other weather sites:

Template documentation
and downloads

And another site



Weather Underground History page Text

Daily Summary for November 5, 2017 Units:  Metric    English   Both
« Previous Day
Next Day »
Daily Weekly Monthly Yearly Custom
  High: Low: Average:
Temperature: 11.5 °C 3.9 °C 7.6 °C
Dew Point: 10.9 °C 1.9 °C 4.8 °C
Humidity: 96 % 64 % 83 %
Wind Speed: 25.7 km/h 0.0 km/h 6.2 km/h
Wind Gust: 51.5 km/h - -
Wind:- - WNW
Pressure: 1021.2 hPa 1009.7 hPa -
Precipitation: 4.3 mm    
Historical Graphs
 
 
Tabular Data for November 5, 2017
Time Temperature Dew Point Pressure Wind Wind Speed Wind Gust Humidity Rainfall Rate (Hourly)
00:02 10.8 °C 9.9 °C 1010.0 hPa Calm   1.6 km/h 94 % 1.0 mm
00:07 10.8 °C 9.9 °C 1010.0 hPa Calm   1.6 km/h 94 % 1.0 mm
00:12 10.7 °C 9.8 °C 1009.7 hPa Calm     94 % 1.0 mm
00:17 10.6 °C 9.7 °C 1010.0 hPa Calm     94 % 1.0 mm
00:22 10.6 °C 9.7 °C 1010.0 hPa Calm     94 % 1.3 mm
00:32 10.6 °C 9.7 °C 1010.0 hPa Calm   1.6 km/h 94 % 1.3 mm
00:37 10.6 °C 9.8 °C 1010.0 hPa Calm   1.6 km/h 95 % 1.3 mm
00:42 10.6 °C 9.8 °C 1010.0 hPa SSW 1.6 km/h 1.6 km/h 95 % 0.8 mm
00:47 10.7 °C 9.9 °C 1010.0 hPa Calm   3.2 km/h 95 % 0.5 mm
00:52 10.8 °C 10.0 °C 1010.0 hPa SW 1.6 km/h 3.2 km/h 95 % 0.5 mm
01:02 11.2 °C 10.6 °C 1010.0 hPa WSW 1.6 km/h 4.8 km/h 96 % 0.5 mm
01:07 11.2 °C 10.6 °C 1010.4 hPa WSW 1.6 km/h 4.8 km/h 96 % 0.5 mm
01:12 11.3 °C 10.7 °C 1010.4 hPa West 3.2 km/h 4.8 km/h 96 % 1.0 mm
01:17 11.3 °C 10.7 °C 1010.4 hPa West 4.8 km/h 6.4 km/h 96 % 1.5 mm
01:22 11.4 °C 10.8 °C 1010.4 hPa WSW 6.4 km/h 9.7 km/h 96 % 1.3 mm
01:27 11.5 °C 10.9 °C 1011.1 hPa West 11.3 km/h 12.9 km/h 96 % 1.5 mm
01:32 10.8 °C 9.7 °C 1010.7 hPa NNW 6.4 km/h 51.5 km/h 93 % 3.3 mm
01:37 10.1 °C 9.0 °C 1011.1 hPa NW 11.3 km/h 51.5 km/h 93 % 3.3 mm
01:42 9.6 °C 8.5 °C 1011.1 hPa NE 14.5 km/h 51.5 km/h 93 % 3.8 mm
01:47 9.4 °C 8.3 °C 1011.4 hPa NW 19.3 km/h 33.8 km/h 93 % 3.8 mm
01:52 9.2 °C 8.1 °C 1011.4 hPa NNW 11.3 km/h 33.8 km/h 93 % 4.1 mm
01:57 9.2 °C 8.1 °C 1011.4 hPa NW 12.9 km/h 35.4 km/h 93 % 3.8 mm
02:02 9.1 °C 8.0 °C 1011.4 hPa NNW 11.3 km/h 35.4 km/h 93 % 3.6 mm
02:07 9.1 °C 8.0 °C 1011.7 hPa NNW 25.7 km/h 25.7 km/h 93 % 3.3 mm
02:12 9.1 °C 8.0 °C 1011.7 hPa NNW 9.7 km/h 25.7 km/h 93 % 3.0 mm
02:17 9.1 °C 8.0 °C 1011.4 hPa NNE 16.1 km/h 25.7 km/h 93 % 2.8 mm
02:22 9.1 °C 7.9 °C 1011.7 hPa North 3.2 km/h 25.7 km/h 92 % 2.5 mm
02:27 9.0 °C 7.8 °C 1011.4 hPa WNW 9.7 km/h 22.5 km/h 92 % 2.3 mm
02:32 8.9 °C 7.5 °C 1011.4 hPa West 8.0 km/h 25.7 km/h 91 % 0.8 mm
02:37 8.8 °C 7.4 °C 1011.4 hPa WNW 9.7 km/h 25.7 km/h 91 % 0.5 mm
02:42 8.8 °C 7.4 °C 1011.4 hPa NNW 4.8 km/h 25.7 km/h 91 % 0.3 mm
02:47 8.8 °C 7.2 °C 1011.7 hPa North 4.8 km/h 19.3 km/h 90 % 0.0 mm
02:52 8.7 °C 7.2 °C 1011.7 hPa NNW 6.4 km/h 19.3 km/h 90 % 0.0 mm
02:57 8.7 °C 7.2 °C 1011.7 hPa WNW 8.0 km/h 17.7 km/h 90 % 0.0 mm
03:02 8.7 °C 7.2 °C 1011.7 hPa NNW 14.5 km/h 17.7 km/h 90 % 0.0 mm
03:07 8.7 °C 7.2 °C 1011.7 hPa NNW 3.2 km/h 17.7 km/h 90 % 0.0 mm
03:12 8.6 °C 7.1 °C 1011.7 hPa NW 3.2 km/h 17.7 km/h 90 % 0.0 mm
03:17 8.6 °C 6.9 °C 1012.1 hPa NNW 14.5 km/h 17.7 km/h 89 % 0.0 mm
03:22 8.6 °C 6.9 °C 1012.1 hPa NNW 14.5 km/h 20.9 km/h 89 % 0.0 mm
03:27 8.3 °C 6.6 °C 1012.1 hPa WNW 9.7 km/h 20.9 km/h 89 % 0.0 mm
03:32 8.3 °C 6.6 °C 1012.1 hPa WNW 9.7 km/h 20.9 km/h 89 % 0.0 mm
03:37 8.3 °C 6.6 °C 1012.1 hPa WNW 9.7 km/h 17.7 km/h 89 % 0.0 mm
08:27 6.3 °C 4.9 °C 1015.5 hPa WSW 1.6 km/h -1607.4 km/h 91 % 0 mm
08:32 6.4 °C 4.9 °C 1015.5 hPa West 3.2 km/h 4.8 km/h 90 % 0.0 mm
08:37 6.4 °C 4.9 °C 1015.5 hPa NW 3.2 km/h 4.8 km/h 90 % 0.0 mm
08:42 6.5 °C 5.0 °C 1015.5 hPa West 4.8 km/h 11.3 km/h 90 % 0.0 mm
08:47 6.6 °C 4.9 °C 1015.5 hPa West 8.0 km/h 16.1 km/h 89 % 0.0 mm
08:52 6.7 °C 5.0 °C 1015.5 hPa West 6.4 km/h 16.1 km/h 89 % 0.0 mm
08:57 6.8 °C 5.1 °C 1015.5 hPa NW 8.0 km/h 24.1 km/h 89 % 0.0 mm
09:02 6.9 °C 5.2 °C 1015.8 hPa West 3.2 km/h 24.1 km/h 89 % 0.0 mm
09:07 7.1 °C 5.4 °C 1015.8 hPa West 4.8 km/h 24.1 km/h 89 % 0.0 mm
09:12 7.1 °C 5.4 °C 1015.8 hPa WSW 3.2 km/h 12.9 km/h 89 % 0.0 mm
09:17 7.2 °C 5.3 °C 1015.8 hPa WNW 9.7 km/h 14.5 km/h 88 % 0.0 mm
09:27 7.3 °C 5.3 °C 1015.8 hPa West 9.7 km/h 19.3 km/h 87 % 0.0 mm
09:32 7.3 °C 5.1 °C 1016.1 hPa NNW 11.3 km/h 19.3 km/h 86 % 0.0 mm
09:37 7.4 °C 5.2 °C 1016.1 hPa WNW 6.4 km/h 30.6 km/h 86 % 0.0 mm
09:42 7.5 °C 5.3 °C 1016.1 hPa West 9.7 km/h 30.6 km/h 86 % 0.0 mm
09:47 7.7 °C 5.5 °C 1016.1 hPa West 8.0 km/h 30.6 km/h 86 % 0.0 mm
09:52 7.8 °C 5.6 °C 1016.1 hPa WNW 19.3 km/h 20.9 km/h 86 % 0.0 mm
09:57 7.8 °C 5.6 °C 1016.5 hPa WNW 9.7 km/h 20.9 km/h 86 % 0.0 mm
10:02 7.9 °C 5.7 °C 1016.5 hPa WNW 6.4 km/h 22.5 km/h 86 % 0.0 mm
10:12 7.6 °C 5.4 °C 1016.5 hPa West 14.5 km/h 30.6 km/h 86 % 0.0 mm
10:17 7.6 °C 5.4 °C 1016.5 hPa WNW 9.7 km/h 30.6 km/h 86 % 0.0 mm
10:22 7.6 °C 5.2 °C 1016.5 hPa West 9.7 km/h 25.7 km/h 85 % 0.0 mm
10:27 7.8 °C 5.6 °C 1016.5 hPa WNW 4.8 km/h 25.7 km/h 86 % 0.0 mm
10:32 8.0 °C 5.6 °C 1016.5 hPa WNW 6.4 km/h 24.1 km/h 85 % 0.0 mm
10:37 8.2 °C 5.5 °C 1016.5 hPa WNW 8.0 km/h 24.1 km/h 83 % 0.0 mm
10:42 8.3 °C 5.6 °C 1016.8 hPa West 9.7 km/h 24.1 km/h 83 % 0.0 mm
10:47 8.5 °C 5.8 °C 1016.8 hPa West 11.3 km/h 24.1 km/h 83 % 0.0 mm
10:52 8.3 °C 5.4 °C 1017.2 hPa West 6.4 km/h 25.7 km/h 82 % 0.0 mm
10:57 8.4 °C 5.7 °C 1017.2 hPa WNW 17.7 km/h 29.0 km/h 83 % 0.0 mm
11:02 8.4 °C 5.5 °C 1017.2 hPa NNW 12.9 km/h 29.0 km/h 82 % 0.0 mm
11:07 8.2 °C 5.3 °C 1017.2 hPa NW 14.5 km/h 29.0 km/h 82 % 0.0 mm
11:12 8.3 °C 5.6 °C 1017.2 hPa NW 9.7 km/h 29.0 km/h 83 % 0.0 mm
11:17 8.4 °C 5.5 °C 1017.2 hPa West 1.6 km/h 29.0 km/h 82 % 0.0 mm
11:27 8.7 °C 5.6 °C 1017.2 hPa NW 17.7 km/h 24.1 km/h 81 % 0.0 mm
11:32 8.6 °C 5.5 °C 1017.2 hPa WSW 4.8 km/h 24.1 km/h 81 % 0.0 mm
11:37 8.4 °C 5.3 °C 1017.2 hPa WNW 8.0 km/h 24.1 km/h 81 % 0.0 mm
11:42 8.4 °C 5.2 °C 1017.2 hPa WNW 6.4 km/h 24.1 km/h 80 % 0.0 mm
11:47 8.7 °C 5.3 °C 1017.2 hPa WNW 9.7 km/h 24.1 km/h 79 % 0.0 mm
11:52 8.8 °C 5.4 °C 1017.2 hPa WNW 17.7 km/h 22.5 km/h 79 % 0.0 mm
11:57 9.0 °C 5.6 °C 1017.2 hPa WSW 6.4 km/h 22.5 km/h 79 % 0.0 mm
12:02 9.3 °C 5.8 °C 1017.2 hPa West 14.5 km/h 22.5 km/h 79 % 0.0 mm
12:07 9.2 °C 5.4 °C 1017.2 hPa WNW 14.5 km/h 22.5 km/h 77 % 0.0 mm
12:12 9.2 °C 5.0 °C 1017.2 hPa NW 17.7 km/h 22.5 km/h 75 % 0.0 mm
12:17 9.1 °C 4.5 °C 1017.2 hPa WNW 9.7 km/h 22.5 km/h 73 % 0.0 mm
12:22 9.2 °C 4.6 °C 1017.2 hPa NW 6.4 km/h 22.5 km/h 73 % 0.0 mm
12:32 9.5 °C 4.9 °C 1017.2 hPa West 14.5 km/h 25.7 km/h 73 % 0.0 mm
12:37 9.2 °C 4.6 °C 1017.2 hPa West 8.0 km/h 32.2 km/h 73 % 0.0 mm
12:42 9.3 °C 4.5 °C 1017.5 hPa NW 16.1 km/h 32.2 km/h 72 % 0.0 mm
12:47 9.3 °C 4.5 °C 1017.2 hPa WNW 19.3 km/h 32.2 km/h 72 % 0.0 mm
12:52 9.4 °C 4.4 °C 1017.2 hPa NNW 11.3 km/h 35.4 km/h 71 % 0.0 mm
12:57 9.7 °C 5.1 °C 1017.2 hPa West 8.0 km/h 35.4 km/h 73 % 0.0 mm
13:02 9.4 °C 4.2 °C 1017.2 hPa NW 9.7 km/h 24.1 km/h 70 % 0.0 mm
13:07 9.3 °C 4.3 °C 1017.2 hPa West 11.3 km/h 27.4 km/h 71 % 0.0 mm
13:17 9.4 °C 4.6 °C 1017.2 hPa West 12.9 km/h 27.4 km/h 72 % 0.0 mm
13:22 9.5 °C 4.3 °C 1017.2 hPa West 12.9 km/h 24.1 km/h 70 % 0.0 mm
13:27 9.6 °C 4.4 °C 1017.2 hPa WNW 9.7 km/h 24.1 km/h 70 % 0.0 mm
13:32 9.7 °C 4.3 °C 1017.2 hPa West 4.8 km/h 25.7 km/h 69 % 0.0 mm
13:37 9.9 °C 4.7 °C 1017.2 hPa WNW 4.8 km/h 25.7 km/h 70 % 0.0 mm
13:42 10.1 °C 4.2 °C 1017.2 hPa NNW 3.2 km/h 25.7 km/h 67 % 0.0 mm
13:47 9.9 °C 4.3 °C 1017.2 hPa WNW 12.9 km/h 19.3 km/h 68 % 0.0 mm
13:52 9.7 °C 4.5 °C 1017.2 hPa NW 16.1 km/h 25.7 km/h 70 % 0.0 mm
13:57 9.7 °C 3.7 °C 1017.2 hPa WNW 8.0 km/h 25.7 km/h 66 % 0.0 mm
14:02 9.7 °C 4.1 °C 1017.2 hPa WNW 6.4 km/h 25.7 km/h 68 % 0.0 mm
14:07 9.5 °C 3.7 °C 1017.2 hPa West 11.3 km/h 19.3 km/h 67 % 0.0 mm
14:12 9.4 °C 4.0 °C 1017.2 hPa WSW 4.8 km/h 24.1 km/h 69 % 0.0 mm
14:17 9.3 °C 4.3 °C 1017.2 hPa NW 6.4 km/h 24.1 km/h 71 % 0.0 mm
14:22 9.2 °C 4.2 °C 1017.2 hPa WNW 6.4 km/h 24.1 km/h 71 % 0.0 mm
14:27 9.0 °C 4.4 °C 1017.2 hPa NW 8.0 km/h 17.7 km/h 73 % 0.0 mm
14:32 9.2 °C 4.8 °C 1017.2 hPa NW 3.2 km/h 17.7 km/h 74 % 0.0 mm
14:37 9.3 °C 4.5 °C 1017.2 hPa WSW 1.6 km/h 17.7 km/h 72 % 0.0 mm
14:42 9.2 °C 4.4 °C 1017.2 hPa WNW 3.2 km/h 17.7 km/h 72 % 0.0 mm
14:47 9.3 °C 4.1 °C 1017.2 hPa NW 6.4 km/h 14.5 km/h 70 % 0.0 mm
14:57 9.6 °C 3.3 °C 1017.2 hPa NW 11.3 km/h 25.7 km/h 65 % 0.0 mm
15:07 9.8 °C 3.7 °C 1017.5 hPa NW 6.4 km/h 24.1 km/h 66 % 0.0 mm
15:12 9.8 °C 3.5 °C 1017.5 hPa WNW 4.8 km/h 24.1 km/h 65 % 0.0 mm
15:17 9.9 °C 3.6 °C 1017.5 hPa NW 17.7 km/h 24.1 km/h 65 % 0.0 mm
15:22 9.9 °C 3.4 °C 1017.5 hPa NNW 16.1 km/h 22.5 km/h 64 % 0.0 mm
15:32 8.8 °C 4.0 °C 1017.5 hPa North 6.4 km/h 24.1 km/h 72 % 0.0 mm
15:37 8.6 °C 4.0 °C 1017.5 hPa WNW 3.2 km/h 24.1 km/h 73 % 0.0 mm
15:42 8.5 °C 4.3 °C 1017.5 hPa NNW 3.2 km/h 22.5 km/h 75 % 0.0 mm
15:47 8.4 °C 4.2 °C 1017.5 hPa WNW 4.8 km/h 17.7 km/h 75 % 0.0 mm
15:52 8.4 °C 4.4 °C 1017.8 hPa Calm   12.9 km/h 76 % 0.0 mm
15:57 8.7 °C 4.5 °C 1017.8 hPa NNW 1.6 km/h 12.9 km/h 75 % 0.0 mm
16:02 8.8 °C 4.4 °C 1017.8 hPa WNW 4.8 km/h 11.3 km/h 74 % 0.0 mm
16:12 9.1 °C 4.3 °C 1017.8 hPa NNW 4.8 km/h 9.7 km/h 72 % 0.0 mm
16:17 9.1 °C 3.9 °C 1017.8 hPa NW 3.2 km/h 12.9 km/h 70 % 0.0 mm
16:22 9.1 °C 3.9 °C 1017.8 hPa WNW 4.8 km/h 12.9 km/h 70 % 0.0 mm
16:27 9.2 °C 4.0 °C 1017.8 hPa West 3.2 km/h 12.9 km/h 70 % 0.0 mm
16:32 9.3 °C 4.3 °C 1017.8 hPa WNW 11.3 km/h 11.3 km/h 71 % 0.0 mm
16:37 9.3 °C 3.7 °C 1017.8 hPa NNW 4.8 km/h 16.1 km/h 68 % 0.0 mm
16:42 9.4 °C 4.0 °C 1017.8 hPa WNW 9.7 km/h 17.7 km/h 69 % 0.0 mm
16:47 9.4 °C 3.8 °C 1018.2 hPa NNW 11.3 km/h 17.7 km/h 68 % 0.0 mm
16:52 9.3 °C 3.7 °C 1017.8 hPa NW 16.1 km/h 17.7 km/h 68 % 0.0 mm
16:57 9.2 °C 3.8 °C 1017.8 hPa WNW 9.7 km/h 20.9 km/h 69 % 0.0 mm
17:02 9.1 °C 3.7 °C 1017.8 hPa West 12.9 km/h 20.9 km/h 69 % 0.0 mm
17:07 8.9 °C 3.9 °C 1018.2 hPa WNW 4.8 km/h 20.9 km/h 71 % 0.0 mm
17:12 8.7 °C 3.5 °C 1018.2 hPa NW 6.4 km/h 17.7 km/h 70 % 0.0 mm
17:17 8.6 °C 3.6 °C 1018.2 hPa West 3.2 km/h 14.5 km/h 71 % 0.0 mm
17:27 8.2 °C 3.5 °C 1018.2 hPa WNW 9.7 km/h 14.5 km/h 72 % 0.0 mm
17:32 8.1 °C 3.6 °C 1018.5 hPa WNW 8.0 km/h 14.5 km/h 73 % 0.0 mm
17:37 7.8 °C 3.5 °C 1018.5 hPa WNW 4.8 km/h 14.5 km/h 74 % 0.0 mm
17:42 7.7 °C 3.4 °C 1018.5 hPa WNW 4.8 km/h 12.9 km/h 74 % 0.0 mm
17:47 7.6 °C 3.3 °C 1018.5 hPa NW 8.0 km/h 11.3 km/h 74 % 0.0 mm
17:52 7.5 °C 3.4 °C 1018.5 hPa WNW 3.2 km/h 12.9 km/h 75 % 0.0 mm
17:57 7.3 °C 3.3 °C 1018.8 hPa WNW 1.6 km/h 12.9 km/h 76 % 0.0 mm
18:02 7.2 °C 3.4 °C 1018.8 hPa WNW 6.4 km/h 12.9 km/h 77 % 0.0 mm
18:12 6.9 °C 3.3 °C 1018.8 hPa WNW 1.6 km/h 6.4 km/h 78 % 0.0 mm
18:17 6.8 °C 3.2 °C 1018.8 hPa WNW 1.6 km/h 6.4 km/h 78 % 0.0 mm
18:27 6.4 °C 3.2 °C 1019.2 hPa West 3.2 km/h 4.8 km/h 80 % 0.0 mm
18:32 6.3 °C 3.3 °C 1019.2 hPa Calm   3.2 km/h 81 % 0.0 mm
18:37 6.2 °C 3.2 °C 1019.2 hPa WNW 1.6 km/h 4.8 km/h 81 % 0.0 mm
18:42 6.0 °C 3.2 °C 1019.2 hPa WNW 4.8 km/h 6.4 km/h 82 % 0.0 mm
18:47 6.1 °C 3.3 °C 1019.2 hPa WNW 8.0 km/h 8.0 km/h 82 % 0.0 mm
18:57 6.0 °C 3.2 °C 1019.5 hPa WNW 3.2 km/h 9.7 km/h 82 % 0.0 mm
19:02 5.8 °C 3.0 °C 1019.5 hPa Calm   8.0 km/h 82 % 0.0 mm
19:07 5.8 °C 3.1 °C 1019.5 hPa WNW 1.6 km/h 8.0 km/h 83 % 0.0 mm
19:12 5.7 °C 3.0 °C 1019.5 hPa Calm   4.8 km/h 83 % 0.0 mm
19:17 5.7 °C 3.0 °C 1019.5 hPa West 3.2 km/h 3.2 km/h 83 % 0.0 mm
19:22 5.7 °C 3.0 °C 1019.5 hPa WSW 3.2 km/h 4.8 km/h 83 % 0.0 mm
19:27 5.6 °C 2.9 °C 1019.5 hPa Calm   4.8 km/h 83 % 0.0 mm
19:32 5.4 °C 2.9 °C 1019.5 hPa West 1.6 km/h 4.8 km/h 84 % 0.0 mm
19:37 5.4 °C 3.1 °C 1019.9 hPa WNW 3.2 km/h 6.4 km/h 85 % 0.0 mm
19:42 5.4 °C 2.9 °C 1019.9 hPa WNW 4.8 km/h 6.4 km/h 84 % 0.0 mm
19:47 5.4 °C 3.1 °C 1019.9 hPa WNW 4.8 km/h 8.0 km/h 85 % 0.0 mm
19:52 5.3 °C 3.0 °C 1019.9 hPa WNW 4.8 km/h 8.0 km/h 85 % 0.0 mm
19:57 5.3 °C 3.0 °C 1019.9 hPa WNW 1.6 km/h 8.0 km/h 85 % 0.0 mm
20:02 5.2 °C 2.9 °C 1019.9 hPa WNW 4.8 km/h 6.4 km/h 85 % 0.0 mm
20:07 5.2 °C 2.9 °C 1019.9 hPa NW 1.6 km/h 6.4 km/h 85 % 0.0 mm
20:12 5.1 °C 2.8 °C 1019.9 hPa Calm   4.8 km/h 85 % 0.0 mm
20:17 5.0 °C 2.9 °C 1019.9 hPa Calm   4.8 km/h 86 % 0.0 mm
20:22 4.9 °C 2.8 °C 1019.9 hPa Calm   3.2 km/h 86 % 0.0 mm
20:27 4.9 °C 2.8 °C 1019.9 hPa Calm   1.6 km/h 86 % 0.0 mm
20:32 4.7 °C 2.6 °C 1019.9 hPa Calm   3.2 km/h 86 % 0.0 mm
20:37 4.6 °C 2.6 °C 1019.9 hPa Calm   3.2 km/h 87 % 0.0 mm
20:42 4.7 °C 2.7 °C 1019.9 hPa Calm     87 % 0.0 mm
20:47 4.8 °C 2.8 °C 1020.2 hPa WNW 1.6 km/h 1.6 km/h 87 % 0.0 mm
20:57 4.8 °C 2.7 °C 1020.2 hPa WNW 1.6 km/h 3.2 km/h 86 % 0.0 mm
21:02 4.8 °C 2.7 °C 1020.2 hPa Calm   4.8 km/h 86 % 0.0 mm
21:07 4.8 °C 2.7 °C 1020.5 hPa Calm   4.8 km/h 86 % 0.0 mm
21:12 4.7 °C 2.4 °C 1020.5 hPa Calm   4.8 km/h 85 % 0.0 mm
21:17 4.4 °C 2.3 °C 1020.5 hPa Calm   3.2 km/h 86 % 0.0 mm
21:22 4.3 °C 2.3 °C 1020.5 hPa Calm   3.2 km/h 87 % 0.0 mm
21:27 4.4 °C 2.4 °C 1020.5 hPa Calm   1.6 km/h 87 % 0.0 mm
21:32 4.3 °C 2.3 °C 1020.5 hPa Calm   3.2 km/h 87 % 0.0 mm
21:37 4.2 °C 2.2 °C 1020.5 hPa Calm   3.2 km/h 87 % 0.0 mm
21:42 3.9 °C 1.9 °C 1020.5 hPa Calm   3.2 km/h 87 % 0.0 mm
21:47 3.9 °C 2.1 °C 1020.5 hPa WNW 1.6 km/h 3.2 km/h 88 % 0.0 mm
21:52 3.9 °C 2.1 °C 1020.5 hPa WNW 1.6 km/h 3.2 km/h 88 % 0.0 mm
21:57 4.0 °C 2.2 °C 1020.5 hPa NW 1.6 km/h 4.8 km/h 88 % 0.0 mm
22:02 4.1 °C 2.5 °C 1020.5 hPa WNW 1.6 km/h 4.8 km/h 89 % 0.0 mm
22:07 4.2 °C 2.4 °C 1020.5 hPa West 3.2 km/h 4.8 km/h 88 % 0.0 mm
22:12 4.2 °C 2.4 °C 1020.9 hPa WNW 1.6 km/h 4.8 km/h 88 % 0.0 mm
22:17 4.2 °C 2.4 °C 1020.9 hPa Calm   4.8 km/h 88 % 0.0 mm
22:22 4.2 °C 2.4 °C 1020.9 hPa NW 1.6 km/h 4.8 km/h 88 % 0.0 mm
22:27 4.2 °C 2.4 °C 1020.9 hPa NW 3.2 km/h 4.8 km/h 88 % 0.0 mm
22:32 4.2 °C 2.4 °C 1020.9 hPa NW 1.6 km/h 6.4 km/h 88 % 0.0 mm
22:37 4.2 °C 2.4 °C 1020.9 hPa NW 1.6 km/h 6.4 km/h 88 % 0.0 mm
22:42 4.2 °C 2.4 °C 1020.9 hPa WNW 4.8 km/h 6.4 km/h 88 % 0.0 mm
22:47 4.3 °C 2.5 °C 1020.9 hPa NW 1.6 km/h 8.0 km/h 88 % 0.0 mm
22:52 4.3 °C 2.5 °C 1020.9 hPa WNW 8.0 km/h 9.7 km/h 88 % 0.0 mm
22:57 4.3 °C 2.5 °C 1020.9 hPa WNW 4.8 km/h 11.3 km/h 88 % 0.0 mm
23:02 4.2 °C 2.4 °C 1020.9 hPa WNW 4.8 km/h 11.3 km/h 88 % 0.0 mm
23:07 4.2 °C 2.5 °C 1020.9 hPa NNW 3.2 km/h 11.3 km/h 89 % 0.0 mm
23:12 4.2 °C 2.5 °C 1020.9 hPa WNW 6.4 km/h 11.3 km/h 89 % 0.0 mm
23:17 4.2 °C 2.5 °C 1020.9 hPa NNW 3.2 km/h 12.9 km/h 89 % 0.0 mm
23:22 4.3 °C 2.6 °C 1020.9 hPa NW 6.4 km/h 12.9 km/h 89 % 0.0 mm
23:32 4.2 °C 2.7 °C 1020.9 hPa NNW 1.6 km/h 9.7 km/h 90 % 0.0 mm
23:37 4.2 °C 2.7 °C 1020.9 hPa WNW 3.2 km/h 8.0 km/h 90 % 0.0 mm
23:42 4.2 °C 2.7 °C 1021.2 hPa NNW 4.8 km/h 6.4 km/h 90 % 0.0 mm
23:47 4.2 °C 2.7 °C 1021.2 hPa NW 6.4 km/h 8.0 km/h 90 % 0.0 mm
23:52 4.1 °C 2.6 °C 1021.2 hPa Calm   8.0 km/h 90 % 0.0 mm
23:57 4.1 °C 2.8 °C 1021.2 hPa NW 3.2 km/h 8.0 km/h 91 % 0.0 mm
Meteo18
Compliments of Weather Underground - 4 mb

Script developed by  Jim McMurry - jmcmurry@mwt.net Adapted for the template by  Wim van der Kuil - Leuven-Template.eu

You find our weather info also at:

European Weather Network

Weather Underground

Equipment we use:

Weather-station
Davis Vue

Weather-program
Meteohub

Weather-server
Raspberry PI 2 B+

Provider
1 and 1

Davis Vue

Meteohub

Raspberry PI 2 B+

1 and 1